Airfield :
LOGIN :

Register | Disclaimer

   EN    FR    IT 

 










Legend :    VFR   Marginal VFR   IFR   Intensive IFR   Very Intensive IFR
Visi :
Ceiling :
>= 8 km
>= 3000ft
5 to 8 km
1000 to 3000 ft
1500m to 5 km
500 to 1000 ft
800 to 1500m
200 to 500 ft
< 800m
< 200 ft
Symbols :   Thunderstorms  Fog  Heavy snow  Heavy precipitations  Wind > 20 kt
SIGMETs :     Misc.  Thunderstorms  Icing  Turbulence  Mountain Waves  Volcanic Ashes







- Airport Elevation : 458 ft
- Download approach charts


LFSI - St-Dizier

CURRENT METAR :
  • 230730Z AUTO VRB02KT 0300 0250 R11/0325N FG VV/// 03/02 Q1032

EXPIRED METARs :
  • 230700Z AUTO 00000KT 0250 R11/0275N FG VV/// 03/02 Q1032
  • 230630Z AUTO VRB02KT 0200 R11/0200N FG VV/// 03/02 Q1032
  • 230600Z AUTO 31003KT 0400 0300 R11/0325N FG VV/// 03/02 Q1032
  • 230530Z AUTO 00000KT 5000 BR NSC 02/00 Q1031
  • 230500Z AUTO 28002KT 5000 BR NSC 03/02 Q1031

TAF TAF LFSI
Valid from the 23 at 03:00 until the 24 at 03:00 UTC


230200Z 2303/2403 VRB02KT 6000 NSC
TEMPO 2303/2309 3000 BR
PROB40
TEMPO 2304/2308 0500 FG VV///
No reported NOTAMs for that airfield.



MET'MAP, your aeronautical weather chart ! - Copyright ORBIFLY December 2007 - Disclaimer

ORBIFLY MET'MAP TEAM :

Programming & Development : Alexandra Zaïnal
Concept & Development : Baudouin d'Aumeries
Co-Development & Prog : Marc-Olivier Méhu
Technical & hardware support : Manuel Goepfert

Contact : metmap@orbifly.com




SOURCES & CREDITS :

   NOAA